CheckWX is a tool to help pilots better visualize weather data.  It is not intended as a substitute for an official pre-flight weather briefing.

05:39:09 UTC

KTKV METAR
Tomahawk Regional Airport
Tomahawk, Wisconsin, USA
Current

24 mins ago

KTKV 280515Z AUTO 00000KT 10SM CLR M22/M24 A2997 RMK AO2 T12211243
Observed
Feb-28 @ 05:15 UTC
Visibility
10 SM
Flight Rules
VFR
Cloud Levels
  • Clear skies
Temperature
-22°C / -8°F
Dewpoint
-24°C / -11°F
Humidity
84%
Altimeter
29.97" Hg
Pressure
1014.92 hPa
Previous

44 mins ago

KTKV 280455Z AUTO 00000KT 10SM CLR M22/M24 A2998 RMK AO2 T12211242
Observed
Feb-28 @ 04:55 UTC
Visibility
10 SM
Flight Rules
VFR
Cloud Levels
  • Clear skies
Temperature
-22°C / -8°F
Dewpoint
-24°C / -11°F
Humidity
84%
Altimeter
29.98" Hg
Pressure
1015.22 hPa
Previous

1 hour ago

KTKV 280435Z AUTO 00000KT 10SM CLR M21/M23 A2998 RMK AO2 T12141234
Observed
Feb-28 @ 04:35 UTC
Visibility
10 SM
Flight Rules
VFR
Cloud Levels
  • Clear skies
Temperature
-21°C / -6°F
Dewpoint
-23°C / -9°F
Humidity
84%
Altimeter
29.98" Hg
Pressure
1015.22 hPa